CheckWX is a tool to help pilots better visualize weather data.  It is not intended as a substitute for an official pre-flight weather briefing.

05:33:24 UTC

SCTE TAF
El Tepual Airport
Puerto Montt, Chile
TAF SCTE 040400Z 0406/0506 19005KT 9999 SCT035 TN04/0407Z TX15/0421Z BECMG 0406/0408 VRB02KT 3000 BR BKN020 TEMPO 0409/0411 0500 FG OVC005 BECMG 0412/0414 17007KT 9999 NSW BKN035 BECMG 0500/0502 02005KT OVC025

Apr-4@
06:00 UTC

Apr-4 @ 06:00 UTC

Apr-5@
06:00 UTC

Apr-5 @ 06:00 UTC

TAF SCTE 040400Z 0406/0506 19005KT 9999 SCT035 TN04/0407Z TX15/0421Z
Wind
  • 190° at 5 KTS
Cloud Levels
  • Scattered at 3,500' AGL

Apr-4@
06:00 UTC

Apr-4 @ 06:00 UTC

Apr-4@
12:00 UTC

Apr-4 @ 12:00 UTC

BECMG 0406/0408 VRB02KT 3000 BR BKN020

Expired

Wind
  • Variable at 2 KTS
Conditions
Mist
Cloud Levels
  • Broken at 2,000' AGL

Apr-4@
09:00 UTC

Apr-4 @ 09:00 UTC

Apr-4@
11:00 UTC

Apr-4 @ 11:00 UTC

TEMPO 0409/0411 0500 FG OVC005

Expired

Conditions
Fog
Cloud Levels
  • Overcast at 500' AGL

Apr-4@
12:00 UTC

Apr-4 @ 12:00 UTC

Apr-5@
00:00 UTC

Apr-5 @ 00:00 UTC

BECMG 0412/0414 17007KT 9999 NSW BKN035

Expired

Wind
  • 170° at 7 KTS
Conditions
No significant weather
Cloud Levels
  • Broken at 3,500' AGL

Apr-5@
00:00 UTC

Apr-5 @ 00:00 UTC

Apr-5@
06:00 UTC

Apr-5 @ 06:00 UTC

BECMG 0500/0502 02005KT OVC025

Becoming

Becoming Conditions expected by Sun, Apr 5, 2020 @ 02:00 UTC

Wind
  • 020° at 5 KTS
Conditions
No significant weather
Cloud Levels
  • Overcast at 2,500' AGL